Terminal Aerodrome Forecast
Issued by NWS Pittsburgh, PA

Current Version | Previous Version | Graphics & Text | Print | Product List | Glossary On
Versions: 1 2 3 4 5 6 7 8 9 10 11 12 13 14 15 16 17 18 19 20 21 22 23 24 25 26 27 28 29 30 31 32 33 34 35
000
FTUS41 KPBZ 171124 AAC
TAFPIT
TAF AMD
KPIT 171124Z 1711/1812 27010KT P6SM -SHSN BKN025
      TEMPO 1712/1714 3SM -SN BR BKN015
     FM171400 26013G26KT P6SM -SHSN BKN025
     FM171900 28012KT P6SM BKN035
     FM180000 26006KT P6SM SCT040=

USA.gov is the U.S. government's official web portal to all federal, state and local government web resources and services.